Latest Coastal Weather Observations for Darwin Airport

IDD60701

Issued at 2:11 pm CST Sunday 21 December 2014 (issued every 10 minutes, with the page automatically refreshed every 10 minutes)

About coastal observations | Map of coastal stations | Coastal observations for NT | Marine services | Other Formats
Station Details ID: 014015 Name: DARWIN AIRPORT Lat: -12.42 Lon: 130.89 Height: 30.4 m
Data from the previous 72 hours. | See also: Recent months at Darwin Airport
Date/Time
CST
Temp

°C
Wind Pressure Rain
since 9am
mm
Weather Cloud Vis
km
Sea
Height
m
Swell
Dir
 
Speed
knots
Gust
knots
hPa Trend Height
m
Period
s
Dir
21/02:00pm 32.2 NNW 7 10 1006.8 - 0.0 - Mostly clear 10 - - - -
21/01:30pm 32.3 NNW 6 8 1007.4 - 0.0 - Mostly clear 10 - - - -
21/01:00pm 32.3 NNW 8 11 1008.0 - 0.0 - Mostly clear 10 - - - -
21/12:30pm 32.7 W 8 11 1008.3 - 0.0 - Mostly clear 10 - - - -
21/12:00pm 32.4 N 6 8 1008.4 F 0.0 Fine Mostly cloudy 30 - - - -
21/11:30am 31.8 N 7 8 1009.3 - 0.0 - Mostly clear 10 - - - -
21/11:00am 31.5 NNE 9 12 1009.8 - 0.0 - Mostly clear 10 - - - -
21/10:30am 31.4 NE 5 9 1010.1 - 0.0 - Mostly clear 10 - - - -
21/10:00am 30.9 ENE 6 8 1010.0 - 0.0 - Mostly clear 10 - - - -
21/09:30am 30.2 ESE 8 10 1010.1 - 0.0 - Mostly clear 10 - - - -
21/09:00am 29.8 SE 10 12 1009.9 R 0.2 Fine Mostly cloudy 30 - - - -
21/08:30am 29.1 SE 9 10 1010.0 - 0.2 - Mostly clear 10 - - - -
21/08:00am 28.7 SE 6 7 1009.3 - 0.2 - Mostly clear 10 - - - -
21/07:30am 28.4 SSE 5 6 1008.8 - 0.2 - Mostly clear 10 - - - -
21/07:00am 28.1 S 5 5 1008.2 - 0.2 - Mostly clear 10 - - - -
21/06:30am 27.7 S 3 5 1008.0 - 0.2 - Mostly clear 10 - - - -
21/06:00am 27.5 SW 4 4 1007.4 F 0.2 Lightning Mostly cloudy 30 - - - -
21/05:30am 28.1 SSW 4 5 1007.5 - 0.2 - Mostly clear 10 - - - -
21/05:00am 28.3 S 4 4 1007.2 - 0.2 - Mostly clear 10 - - - -
21/04:30am 27.7 WSW 4 5 1006.9 - 0.2 - Mostly clear 10 - - - -
21/04:00am 27.5 WSW 5 6 1006.8 - 0.2 - Mostly clear 10 - - - -
21/03:30am 27.1 W 5 6 1006.8 - 0.2 - Mostly clear 10 - - - -
21/03:00am 27.6 W 5 7 1006.4 F 0.2 Lightning Mostly cloudy 30 - - - -
21/02:30am 27.1 W 5 6 1007.0 - 0.2 - Mostly clear 10 - - - -
21/02:00am 27.3 WNW 3 4 1007.2 - 0.2 - - 10 - - - -
21/01:30am 27.1 NNW 3 4 1008.0 - 0.2 - Mostly clear 10 - - - -
21/01:00am 27.3 NNW 8 10 1008.4 - 0.2 Thunder Mostly clear 10 - - - -
21/12:30am 28.4 W 12 15 1008.9 - 0.2 Thunder Mostly clear 10 - - - -
21/12:22am 28.7 W 13 18 1008.9 - 0.2 Thunderstorm Partly cloudy 6 - - - -
21/12:05am 30.2 W 6 8 1008.9 - 0.2 Thunder Partly cloudy 10 - - - -
21/12:00am 30.2 WSW 7 9 1008.9 R 0.2 Thunder Mostly clear 10 - - - -
 
Date/Time
CST
Temp

°C
Wind Pressure Rain
since 9am
mm
Weather Cloud Vis
km
Sea
Height
m
Swell
Dir
 
Speed
knots
Gust
knots
hPa Trend Height
m
Period
s
Dir
20/11:52pm 30.2 WSW 7 9 1008.8 - 0.2 Thunder Mostly clear 10 - - - -
20/11:30pm 30.3 W 7 9 1009.0 - 0.2 - Mostly clear 10 - - - -
20/11:00pm 30.5 WNW 8 11 1008.8 - 0.2 - Mostly clear 10 - - - -
20/10:30pm 30.6 NW 8 10 1008.6 - 0.2 - Mostly clear 10 - - - -
20/10:00pm 30.7 NNW 7 9 1008.1 - 0.2 - Mostly clear 10 - - - -
20/09:30pm 30.3 N 6 8 1008.0 - 0.2 - Mostly clear 10 - - - -
20/09:00pm 30.8 NNW 6 7 1007.4 R 0.2 Fine Mostly cloudy 30 - - - -
20/08:30pm 30.6 N 7 8 1006.9 - 0.2 - Mostly clear 10 - - - -
20/08:00pm 30.8 N 6 8 1006.7 - 0.2 - Mostly clear 10 - - - -
20/07:30pm 31.3 N 7 7 1006.2 - 0.2 - Mostly clear 10 - - - -
20/07:00pm 32.3 N 8 9 1005.6 - 0.2 - Mostly clear 10 - - - -
20/06:30pm 33.1 N 8 9 1005.5 - 0.2 - Mostly clear 10 - - - -
20/06:00pm 33.8 N 9 11 1004.9 F 0.2 Fine Mostly cloudy 30 - - - -
20/05:30pm 34.2 N 9 10 1004.9 - 0.2 - Mostly clear 10 - - - -
20/05:00pm 34.2 N 9 11 1004.9 - 0.2 - Mostly clear 10 - - - -
20/04:30pm 34.1 N 9 12 1004.9 - 0.2 - Mostly clear 10 - - - -
20/04:00pm 34.5 NNW 7 8 1005.1 - 0.2 - Mostly clear 10 - - - -
20/03:30pm 34.3 N 9 12 1005.5 - 0.2 - Mostly clear 10 - - - -
20/03:00pm 34.4 N 8 12 1005.7 F 0.2 Fine Mostly cloudy 30 - - - -
20/02:30pm 34.3 N 8 14 1006.4 - 0.2 - Mostly clear 10 - - - -
20/02:00pm 34.2 N 7 11 1006.8 - 0.2 - Mostly clear 10 - - - -
20/01:30pm 33.5 N 6 9 1007.2 - 0.2 - Mostly clear 10 - - - -
20/01:00pm 33.5 N 6 9 1007.8 - 0.2 - Mostly clear 10 - - - -
20/12:30pm 33.0 ENE 3 6 1008.3 - 0.2 - Mostly clear 10 - - - -
20/12:00pm 32.3 SW 3 5 1008.5 F 0.2 Fine Mostly cloudy 30 - - - -
20/11:30am 31.8 WSW 4 6 1009.3 - 0.2 - Mostly clear 10 - - - -
20/11:00am 30.3 ESE 4 6 1009.8 - 0.0 - Mostly clear 10 - - - -
20/10:30am 29.2 SE 6 8 1010.1 - 0.0 - Mostly clear 10 - - - -
20/10:00am 28.1 SSE 6 8 1010.2 - 0.0 - Mostly clear 10 - - - -
20/09:30am 27.0 SSE 7 9 1010.3 - 0.0 - Mostly clear 10 - - - -
20/09:00am 26.7 SSE 9 11 1010.2 F 28.4 Fine Mostly cloudy 30 - - - -
20/08:30am 26.5 S 7 8 1010.7 - 28.4 - Mostly clear 10 - - - -
20/08:00am 25.8 SSW 6 8 1010.4 - 28.4 - Mostly clear 10 - - - -
20/07:30am 25.6 S 6 7 1010.1 - 28.4 - Mostly clear 10 - - - -
20/07:00am 25.1 SSW 7 8 1010.0 - 28.4 - Mostly clear 10 - - - -
20/06:30am 24.7 WSW 9 12 1010.0 - 28.4 - Mostly clear 10 - - - -
20/06:00am 24.8 SSW 10 15 1009.4 R 28.4 Thunder Mostly cloudy 20 - - - -
20/05:40am 24.4 SW 14 17 1009.6 - 28.2 Thunder Mostly clear 5 - - - -
20/05:30am 25.1 SSW 18 21 1009.5 - 27.2 Showers Mostly clear 2 - - - -
20/05:24am 25.3 SSW 19 21 1009.5 - 24.6 Showers Partly cloudy 0.5 - - - -
20/05:14am 26.4 SW 7 11 1009.6 - 3.6 Showers Partly cloudy 0.5 - - - -
20/05:10am 27.8 SSE 6 10 1009.2 - 0.0 Thunder Partly cloudy 3 - - - -
20/05:00am 27.6 N 11 16 1008.5 - 0.0 Thunder Partly cloudy 10 - - - -
20/04:30am 30.0 W 8 11 1007.8 - 0.0 Thunder Mostly clear 10 - - - -
20/04:25am 30.1 WSW 9 11 1007.8 - 0.0 Thunder Mostly clear 10 - - - -
20/04:00am 29.9 WNW 9 12 1008.2 - 0.0 - Mostly clear 10 - - - -
20/03:30am 29.8 WNW 9 12 1008.1 - 0.0 - Partly cloudy 10 - - - -
20/03:00am 29.6 WNW 9 12 1008.2 F 0.0 Lightning Mostly cloudy 30 - - - -
20/02:30am 29.4 NW 8 10 1008.3 - 0.0 - Mostly clear 10 - - - -
20/02:00am 29.3 W 8 8 1008.5 - 0.0 Showers Mostly clear 10 - - - -
20/01:30am 30.1 NW 10 14 1008.2 - 0.0 Showers Mostly clear 10 - - - -
20/01:00am 29.1 NW 6 10 1008.8 - 0.0 Thunder Mostly clear 10 - - - -
20/12:30am 29.0 W 4 5 1010.2 - 0.0 - Mostly clear 10 - - - -
20/12:00am 28.4 NNE 2 6 1010.2 R 0.0 Lightning Mostly cloudy 30 - - - -
 
Date/Time
CST
Temp

°C
Wind Pressure Rain
since 9am
mm
Weather Cloud Vis
km
Sea
Height
m
Swell
Dir
 
Speed
knots
Gust
knots
hPa Trend Height
m
Period
s
Dir
19/11:30pm 28.6 N 5 6 1010.4 - 0.0 Showers Mostly clear 10 - - - -
19/11:00pm 29.5 SW 4 6 1010.5 - 0.0 - Mostly clear 10 - - - -
19/10:30pm 29.3 SSW 5 6 1010.6 - 0.0 - Mostly clear 10 - - - -
19/10:00pm 29.4 WSW 1 5 1009.9 - 0.0 - Mostly clear 10 - - - -
19/09:30pm 29.6 SW 6 7 1009.4 - 0.0 - Mostly clear 10 - - - -
19/09:00pm 29.6 WSW 6 7 1008.7 R 0.0 Fine Mostly cloudy 30 - - - -
19/08:30pm 29.8 SSW 5 6 1008.5 - 0.0 - Mostly clear 10 - - - -
19/08:00pm 29.1 SSW 5 6 1008.4 - 0.0 - Mostly clear 10 - - - -
19/07:30pm 29.2 S 3 5 1008.2 - 0.0 - Mostly clear 10 - - - -
19/07:00pm 29.2 S 10 13 1007.9 - 0.0 - Mostly clear 10 - - - -
19/06:30pm 31.2 W 10 14 1007.6 - 0.0 - Mostly clear 10 - - - -
19/06:00pm 31.5 WNW 12 15 1006.7 - 0.0 - Mostly clear 10 - - - -
19/05:30pm 31.8 NW 13 16 1006.5 - 0.0 - Mostly clear 10 - - - -
19/05:00pm 32.9 NW 14 16 1006.2 - 0.0 - Mostly clear 10 - - - -
19/04:30pm 34.0 NW 13 16 1006.6 - 0.0 - Mostly clear 10 - - - -
19/04:00pm 34.1 NW 13 16 1006.6 - 0.0 - Mostly clear 10 - - - -
19/03:30pm 34.3 NW 13 18 1006.5 - 0.0 - Mostly clear 10 - - - -
19/03:00pm 34.0 NW 12 15 1007.1 F 0.0 Distant precip. Mostly cloudy 25 - - - -
19/02:30pm 33.1 NW 12 17 1007.8 - 0.0 - Mostly clear 10 - - - -
19/02:00pm 34.0 NW 12 15 1008.3 - 0.0 - Mostly clear 10 - - - -
19/01:30pm 33.6 NW 11 16 1008.8 - 0.0 - Mostly clear 10 - - - -
19/01:00pm 34.3 W 8 12 1009.3 - 0.0 - Mostly clear 10 - - - -
19/12:30pm 32.9 N 8 13 1009.9 - 0.0 - Mostly clear 10 - - - -
19/12:00pm 31.7 N 13 16 1009.9 R 0.0 Distant precip. Cloudy 15 - - - -
19/11:30am 32.8 W 5 8 1010.4 - 0.0 - Mostly clear 10 - - - -
19/11:00am 31.7 NNW 7 9 1010.7 - 0.0 - Mostly clear 10 - - - -
19/10:30am 32.2 SW 6 8 1010.9 - 0.0 - Mostly clear 10 - - - -
19/10:00am 31.0 W 5 9 1010.9 - 0.0 - Mostly clear 10 - - - -
19/09:30am 30.6 WNW 5 7 1011.1 - 0.0 Showers Partly cloudy 10 - - - -
19/09:00am 31.3 W 7 10 1010.7 R 0.0 Fine Mostly cloudy 30 - - - -
19/08:30am 31.4 WNW 7 9 1010.7 - 0.0 - Mostly clear 10 - - - -
19/08:00am 30.9 WNW 7 8 1010.4 - 0.0 - Mostly clear 10 - - - -
19/07:30am 29.7 W 5 6 1010.3 - 0.0 - Mostly clear 10 - - - -
19/07:00am 28.6 NW 2 4 1010.0 - 0.0 - Mostly clear 10 - - - -
19/06:30am 28.0 NW 1 4 1009.6 - 0.0 - Mostly clear 10 - - - -
19/06:00am 28.1 NW 2 5 1008.9 S 0.0 Fine Mostly cloudy 30 - - - -
19/05:30am 28.2 NW 4 5 1008.8 - 0.0 - Mostly clear 10 - - - -
19/05:00am 28.2 NNW 4 5 1008.7 - 0.0 - Mostly clear 10 - - - -
19/04:30am 28.0 N 4 5 1008.7 - 0.0 - Mostly clear 10 - - - -
19/04:00am 28.0 NNW 6 8 1008.5 - 0.0 - Mostly clear 10 - - - -
19/03:30am 28.2 N 8 11 1008.4 - 0.0 - Mostly clear 10 - - - -
19/03:00am 28.1 N 7 10 1008.4 R 0.0 Distant precip. Mostly cloudy 30 - - - -
19/02:30am 29.8 W 8 10 1009.0 - 0.0 - Mostly clear 10 - - - -
19/02:00am 29.8 W 7 10 1009.1 - 0.0 - Mostly clear 10 - - - -
19/01:30am 29.7 W 7 8 1009.0 - 0.0 - Mostly clear 10 - - - -
19/01:00am 29.7 W 8 12 1009.0 - 0.0 - Mostly clear 10 - - - -
19/12:30am 29.5 W 6 7 1009.2 - 0.0 - Mostly clear 10 - - - -
19/12:00am 29.7 WNW 5 6 1009.0 R 0.0 Fine Mostly cloudy 30 - - - -
 
Date/Time
CST
Temp

°C
Wind Pressure Rain
since 9am
mm
Weather Cloud Vis
km
Sea
Height
m
Swell
Dir
 
Speed
knots
Gust
knots
hPa Trend Height
m
Period
s
Dir
18/11:30pm 29.7 WNW 5 7 1009.4 - 0.0 - Mostly clear 10 - - - -
18/11:00pm 30.2 WNW 7 8 1009.4 - 0.0 - - 10 - - - -
18/10:30pm 30.1 WNW 7 8 1009.4 - 0.0 - Mostly clear 10 - - - -
18/10:00pm 30.3 WNW 7 10 1009.1 - 0.0 - Mostly clear 10 - - - -
18/09:30pm 30.3 WNW 8 10 1009.0 - 0.0 - Partly cloudy 10 - - - -
18/09:00pm 30.3 WNW 8 10 1008.4 R 0.0 Fine Mostly cloudy 30 - - - -
18/08:30pm 30.3 W 8 10 1008.7 - 0.0 - Mostly clear 10 - - - -
18/08:00pm 30.6 WNW 8 10 1008.1 - 0.0 - - 10 - - - -
18/07:30pm 30.5 W 9 12 1007.8 - 0.0 - Mostly clear 10 - - - -
18/07:00pm 30.8 WNW 9 11 1007.7 - 0.0 - Mostly clear 10 - - - -
18/06:30pm 31.1 WNW 12 15 1007.2 - 0.0 - Mostly clear 10 - - - -
18/06:00pm 31.3 WNW 12 15 1006.3 F 0.0 Fine Mostly cloudy 30 - - - -
18/05:30pm 31.3 WNW 12 15 1006.5 - 0.0 - Mostly clear 10 - - - -
18/05:00pm 31.6 WNW 13 16 1006.3 - 0.0 - Mostly clear 10 - - - -
18/04:30pm 32.2 WNW 14 17 1006.4 - 0.0 - Mostly clear 10 - - - -
18/04:00pm 33.2 W 14 18 1007.0 - 0.0 - Mostly clear 10 - - - -
18/03:30pm 33.0 WNW 13 16 1006.8 - 0.0 - Mostly clear 10 - - - -
18/03:00pm 31.4 NW 11 14 1007.8 R 0.0 Fine Mostly cloudy 30 - - - -
18/02:30pm 31.4 WNW 12 15 1007.9 - 0.0 - Mostly clear 10 - - - -

Other Formats:

Comma delimited format used in spreadsheet applications
http://www.bom.gov.au/fwo/IDD60701/IDD60701.94120.axf

JavaScript Object Notation format (JSON) in row-major order
http://www.bom.gov.au/fwo/IDD60701/IDD60701.94120.json